Time;durP1;ratioP1;P1;durP2;ratioP2;P2;SDS_P1;SDS_P2;PMS_P1;PMS_P2;Temp;Humidity;BMP_temperature;BMP_pressure;BME280_temperature;BME280_humidity;BME280_pressure;Samples;Min_cycle;Max_cycle;Signal;HPM_P1;HPM_P2
2021/01/18 00:00:16;;;;;;;10.40;5.57;;;16.00;60.00;;;;;;4973959;28;20105;-71
2021/01/18 00:02:43;;;;;;;8.55;4.85;;;16.00;59.80;;;;;;4954729;28;20028;-70
2021/01/18 00:05:09;;;;;;;8.55;5.15;;;16.00;59.90;;;;;;4974397;28;20026;-70
2021/01/18 00:07:47;;;;;;;8.07;5.28;;;16.00;59.80;;;;;;4966401;28;20128;-70
2021/01/18 00:10:14;;;;;;;10.43;5.63;;;16.00;59.70;;;;;;4980197;28;20027;-70
2021/01/18 00:12:44;;;;;;;9.23;4.70;;;16.00;59.80;;;;;;4978037;28;20018;-71
2021/01/18 00:15:10;;;;;;;9.10;4.93;;;15.90;59.70;;;;;;4976656;28;20022;-70
2021/01/18 00:17:35;;;;;;;9.38;4.93;;;15.90;59.70;;;;;;4974063;28;20030;-70
2021/01/18 00:20:01;;;;;;;9.57;5.28;;;16.00;59.50;;;;;;4957386;28;20029;-70
2021/01/18 00:22:27;;;;;;;10.23;5.45;;;15.90;59.60;;;;;;4957264;28;20481;-71
2021/01/18 00:24:52;;;;;;;9.90;5.03;;;15.90;59.60;;;;;;4974509;28;20086;-71
2021/01/18 00:27:18;;;;;;;9.63;5.00;;;15.90;59.50;;;;;;4957227;28;20105;-69
2021/01/18 00:29:43;;;;;;;9.50;4.70;;;15.90;59.50;;;;;;4992571;28;20034;-70
2021/01/18 00:32:09;;;;;;;7.82;4.65;;;15.90;59.50;;;;;;4993752;28;20033;-70
2021/01/18 00:34:34;;;;;;;9.75;4.72;;;15.90;59.40;;;;;;4960828;28;20097;-70
2021/01/18 00:37:00;;;;;;;9.25;4.63;;;15.90;59.30;;;;;;4957169;28;20178;-70
2021/01/18 00:39:25;;;;;;;9.00;4.55;;;15.90;59.40;;;;;;4971266;28;20542;-70
2021/01/18 00:41:51;;;;;;;11.50;5.07;;;15.90;59.40;;;;;;4976168;28;20549;-70
2021/01/18 00:44:16;;;;;;;8.93;4.22;;;15.90;59.60;;;;;;4980580;28;20030;-69
2021/01/18 00:46:45;;;;;;;9.77;4.30;;;15.80;59.50;;;;;;4969963;28;20026;-70
2021/01/18 00:49:11;;;;;;;8.48;4.40;;;15.80;59.40;;;;;;4983237;28;20512;-70
2021/01/18 00:51:38;;;;;;;10.10;4.70;;;15.90;59.20;;;;;;4973930;28;20025;-70
2021/01/18 00:54:04;;;;;;;7.57;4.07;;;15.80;59.20;;;;;;4983551;28;20026;-71
2021/01/18 00:56:30;;;;;;;8.38;4.60;;;15.80;59.20;;;;;;4993432;28;20057;-70
2021/01/18 00:58:55;;;;;;;7.88;4.03;;;15.80;59.30;;;;;;4967278;28;20027;-71
2021/01/18 01:01:22;;;;;;;9.02;4.63;;;15.70;59.20;;;;;;4975599;28;20022;-71
2021/01/18 01:03:48;;;;;;;8.18;4.13;;;15.80;59.10;;;;;;4975936;28;20447;-70
2021/01/18 01:07:07;;;;;;;9.65;4.43;;;15.80;59.20;;;;;;4974769;28;20093;-69
2021/01/18 01:13:00;;;;;;;8.90;4.43;;;15.70;59.20;;;;;;4984964;28;20049;-69
2021/01/18 01:15:26;;;;;;;7.83;4.20;;;15.70;59.20;;;;;;4975660;28;20697;-70
2021/01/18 01:17:52;;;;;;;8.52;4.43;;;15.70;59.10;;;;;;4963437;28;20058;-70
2021/01/18 01:20:19;;;;;;;7.97;4.32;;;15.70;59.10;;;;;;4956392;28;20489;-69
2021/01/18 01:22:45;;;;;;;7.45;3.83;;;15.70;58.90;;;;;;4983858;28;20161;-70
2021/01/18 01:25:13;;;;;;;7.38;3.78;;;15.80;58.90;;;;;;4975570;28;20113;-70
2021/01/18 01:27:39;;;;;;;6.88;3.90;;;15.70;58.80;;;;;;4983896;28;20030;-69
2021/01/18 01:30:07;;;;;;;7.60;3.85;;;15.70;58.80;;;;;;4974881;28;20530;-69
2021/01/18 01:32:32;;;;;;;8.50;3.97;;;15.70;59.00;;;;;;4973537;28;20015;-71
2021/01/18 01:34:58;;;;;;;8.57;4.55;;;15.60;59.00;;;;;;4977906;28;20510;-72
2021/01/18 01:37:23;;;;;;;6.75;3.78;;;15.60;59.10;;;;;;4993133;28;20034;-70
2021/01/18 01:39:49;;;;;;;8.45;3.70;;;15.50;59.20;;;;;;4991396;28;20035;-70
2021/01/18 01:42:22;;;;;;;6.50;3.60;;;15.60;59.00;;;;;;4992726;28;20030;-68
2021/01/18 01:44:48;;;;;;;7.45;3.92;;;15.60;59.00;;;;;;4990944;28;20045;-70
2021/01/18 01:47:28;;;;;;;7.25;4.20;;;15.60;59.00;;;;;;4966686;28;20108;-70
2021/01/18 01:49:54;;;;;;;8.48;4.03;;;15.50;59.00;;;;;;4973130;28;20022;-69
2021/01/18 01:52:23;;;;;;;9.35;3.80;;;15.60;59.00;;;;;;4955665;28;20519;-70
2021/01/18 01:54:52;;;;;;;8.32;3.90;;;15.60;59.00;;;;;;4973376;28;20023;-71
2021/01/18 01:57:18;;;;;;;6.43;3.80;;;15.60;59.00;;;;;;4974694;28;20044;-70
2021/01/18 01:59:45;;;;;;;7.80;4.13;;;15.60;58.80;;;;;;4991582;28;20145;-69
2021/01/18 02:02:14;;;;;;;7.38;4.03;;;15.60;58.90;;;;;;4973474;28;20030;-70
2021/01/18 02:04:39;;;;;;;7.75;3.83;;;15.60;58.90;;;;;;4974125;28;20629;-69
2021/01/18 02:07:27;;;;;;;6.85;3.47;;;15.60;58.80;;;;;;4974742;28;20084;-70
2021/01/18 02:13:18;;;;;;;6.70;3.45;;;15.60;58.90;;;;;;4972371;28;20046;-71
2021/01/18 02:15:58;;;;;;;8.43;3.60;;;15.50;58.90;;;;;;4992151;28;20095;-70
2021/01/18 02:18:35;;;;;;;6.10;3.20;;;15.50;58.80;;;;;;4990696;28;20026;-70
2021/01/18 02:21:38;;;;;;;7.10;3.50;;;15.50;58.90;;;;;;4972403;28;20411;-71
2021/01/18 02:24:25;;;;;;;6.22;3.17;;;15.50;58.80;;;;;;4978433;28;20032;-69
2021/01/18 02:26:57;;;;;;;6.00;3.22;;;15.50;58.90;;;;;;4974441;28;20116;-70
2021/01/18 02:29:52;;;;;;;8.45;3.90;;;15.50;58.70;;;;;;4983558;28;20035;-71
2021/01/18 02:32:55;;;;;;;6.47;3.10;;;15.50;58.70;;;;;;4915308;29;20067;-70
2021/01/18 02:35:35;;;;;;;7.05;3.63;;;15.50;58.70;;;;;;4927313;29;20032;-70
2021/01/18 02:38:06;;;;;;;6.93;3.42;;;15.50;58.70;;;;;;4952175;29;20043;-70
2021/01/18 02:40:35;;;;;;;;;;;15.40;58.80;;;;;;4968667;28;20034;-70
2021/01/18 02:43:11;;;;;;;6.97;3.38;;;15.40;58.70;;;;;;4960488;28;19914;-70
2021/01/18 02:45:39;;;;;;;7.35;3.03;;;15.50;58.80;;;;;;4954364;28;20118;-70
2021/01/18 02:48:05;;;;;;;7.10;3.42;;;15.50;58.70;;;;;;4967017;28;20033;-70
2021/01/18 02:50:32;;;;;;;5.97;3.13;;;15.40;58.80;;;;;;4991146;28;20027;-71
2021/01/18 02:52:59;;;;;;;8.15;3.38;;;15.40;58.80;;;;;;4958435;28;20432;-71
2021/01/18 02:55:24;;;;;;;6.13;3.22;;;15.40;58.80;;;;;;4955300;28;20053;-71
2021/01/18 02:57:52;;;;;;;6.25;3.22;;;15.40;58.70;;;;;;4971723;28;20105;-70
2021/01/18 03:00:50;;;;;;;8.05;3.47;;;15.40;58.70;;;;;;4966391;28;20489;-69
2021/01/18 03:03:31;;;;;;;7.30;3.00;;;15.50;58.60;;;;;;4963179;28;20142;-72
2021/01/18 03:06:18;;;;;;;11.80;3.10;;;15.40;59.00;;;;;;4972751;28;20027;-70
2021/01/18 03:08:48;;;;;;;6.13;3.13;;;15.40;58.60;;;;;;4954140;28;20543;-71
2021/01/18 03:11:23;;;;;;;7.97;3.08;;;15.40;58.70;;;;;;4990286;28;20053;-70
2021/01/18 03:13:51;;;;;;;7.05;3.20;;;15.40;58.80;;;;;;4991273;28;20022;-70
2021/01/18 03:16:21;;;;;;;6.63;3.03;;;15.40;58.60;;;;;;4955040;28;20428;-71
2021/01/18 03:18:49;;;;;;;6.50;3.10;;;15.40;58.70;;;;;;4954620;28;20023;-70
2021/01/18 03:21:17;;;;;;;5.65;2.97;;;15.30;58.60;;;;;;4971596;28;20518;-69
2021/01/18 03:23:44;;;;;;;6.90;3.15;;;15.30;58.70;;;;;;4994800;28;20034;-70
2021/01/18 03:26:10;;;;;;;6.07;3.08;;;15.30;58.80;;;;;;4978241;28;20042;-71
2021/01/18 03:28:36;;;;;;;6.45;2.75;;;15.30;58.70;;;;;;4976573;28;20038;-70
2021/01/18 03:31:02;;;;;;;5.93;2.78;;;15.30;58.70;;;;;;4975919;28;20403;-71
2021/01/18 03:33:27;;;;;;;5.72;2.97;;;15.30;58.70;;;;;;4994989;28;20026;-70
2021/01/18 03:35:53;;;;;;;5.60;2.63;;;15.30;58.50;;;;;;4994788;28;20026;-70
2021/01/18 03:38:20;;;;;;;6.30;3.00;;;15.40;58.40;;;;;;4984999;28;20120;-70
2021/01/18 03:40:46;;;;;;;5.95;2.83;;;15.30;58.40;;;;;;4975616;28;20034;-70
2021/01/18 03:43:12;;;;;;;6.97;3.15;;;15.40;58.40;;;;;;4965626;28;20026;-70
2021/01/18 03:45:41;;;;;;;6.60;3.10;;;15.30;58.40;;;;;;4977333;28;20040;-70
2021/01/18 03:48:08;;;;;;;7.20;3.42;;;15.30;58.40;;;;;;4987713;28;20469;-71
2021/01/18 03:50:35;;;;;;;6.90;2.90;;;15.30;58.50;;;;;;4975431;28;20023;-70
2021/01/18 03:53:00;;;;;;;6.78;2.70;;;15.30;58.50;;;;;;4980329;28;20033;-71
2021/01/18 03:55:26;;;;;;;6.28;2.80;;;15.30;58.90;;;;;;4977350;28;20113;-70
2021/01/18 04:01:14;;;;;;;6.75;2.90;;;15.30;58.40;;;;;;4974391;28;20401;-70
2021/01/18 04:03:41;;;;;;;5.72;2.50;;;15.20;58.40;;;;;;4984476;28;20026;-71
2021/01/18 04:06:06;;;;;;;6.10;2.83;;;15.20;58.40;;;;;;4976704;28;20542;-70
2021/01/18 04:08:32;;;;;;;6.10;2.75;;;15.20;58.40;;;;;;4968696;28;20051;-70
2021/01/18 04:10:57;;;;;;;5.63;2.50;;;15.20;58.40;;;;;;4957324;28;20400;-71
2021/01/18 04:13:23;;;;;;;7.80;2.90;;;15.20;58.40;;;;;;4980864;28;20031;-70
2021/01/18 04:15:48;;;;;;;5.07;2.40;;;15.20;58.30;;;;;;4987063;28;20035;-70
2021/01/18 04:18:14;;;;;;;5.10;2.30;;;15.20;58.30;;;;;;4979205;28;20460;-70
2021/01/18 04:20:39;;;;;;;6.38;2.45;;;15.20;58.40;;;;;;4976857;28;20034;-71
2021/01/18 04:23:05;;;;;;;6.55;2.40;;;15.10;58.60;;;;;;4991994;28;20058;-70
2021/01/18 04:25:31;;;;;;;6.53;2.50;;;15.20;58.40;;;;;;4974618;28;20503;-70
2021/01/18 04:27:59;;;;;;;6.45;2.70;;;15.20;58.40;;;;;;4958340;28;20396;-71
2021/01/18 04:30:27;;;;;;;6.07;2.65;;;15.20;58.50;;;;;;4993990;28;20018;-70
2021/01/18 04:32:57;;;;;;;6.22;2.65;;;15.20;58.60;;;;;;4975782;28;20111;-70
2021/01/18 04:35:24;;;;;;;4.75;2.20;;;15.20;58.30;;;;;;4973696;28;20097;-71
2021/01/18 04:37:49;;;;;;;5.95;2.47;;;15.10;58.30;;;;;;4973393;28;20057;-71
2021/01/18 04:40:20;;;;;;;6.63;2.50;;;15.20;58.40;;;;;;4993799;28;20061;-70
2021/01/18 04:42:46;;;;;;;6.22;2.60;;;15.20;58.30;;;;;;4978017;28;20030;-71
2021/01/18 04:45:15;;;;;;;7.63;3.10;;;15.20;58.30;;;;;;4956915;28;20054;-70
2021/01/18 04:47:43;;;;;;;6.38;2.45;;;15.20;58.10;;;;;;4970043;28;20030;-71
2021/01/18 04:50:11;;;;;;;6.47;2.58;;;15.20;58.00;;;;;;4988716;28;20087;-70
2021/01/18 04:52:59;;;;;;;6.78;2.70;;;15.20;58.00;;;;;;4973974;28;20109;-70
2021/01/18 04:55:30;;;;;;;5.10;2.25;;;15.20;58.00;;;;;;4974062;28;20034;-70
2021/01/18 04:58:12;;;;;;;5.88;2.45;;;15.20;58.30;;;;;;4972709;28;20081;-71
2021/01/18 05:00:47;;;;;;;5.97;2.60;;;15.20;57.80;;;;;;4979925;28;20046;-70
2021/01/18 05:03:21;;;;;;;6.57;2.20;;;15.20;57.70;;;;;;4956296;28;20022;-68
2021/01/18 05:06:06;;;;;;;5.47;2.22;;;15.20;57.90;;;;;;4970215;28;20038;-70
2021/01/18 05:09:10;;;;;;;6.45;2.53;;;15.20;57.80;;;;;;4968523;28;20026;-71
2021/01/18 05:11:37;;;;;;;5.00;2.15;;;15.10;57.80;;;;;;4973587;28;20046;-70
2021/01/18 05:14:04;;;;;;;5.07;2.00;;;15.10;57.90;;;;;;4967035;28;20419;-70
2021/01/18 05:16:33;;;;;;;5.00;2.50;;;15.20;57.90;;;;;;4993221;28;20030;-68
2021/01/18 05:19:08;;;;;;;5.30;2.08;;;15.10;57.90;;;;;;4982994;28;20032;-70
2021/01/18 05:21:33;;;;;;;3.67;1.88;;;15.20;57.80;;;;;;4956198;28;20125;-70
2021/01/18 05:23:59;;;;;;;10.50;2.70;;;15.10;57.80;;;;;;4970337;28;20465;-70
2021/01/18 05:26:26;;;;;;;6.15;2.55;;;15.10;58.40;;;;;;4972107;28;20038;-69
2021/01/18 05:28:54;;;;;;;7.20;2.25;;;15.10;58.30;;;;;;4963461;28;20034;-69
2021/01/18 05:31:26;;;;;;;6.93;2.10;;;15.10;58.70;;;;;;4952859;28;20022;-70
2021/01/18 05:33:52;;;;;;;5.75;1.95;;;15.20;58.30;;;;;;4960672;28;20045;-69
2021/01/18 05:36:42;;;;;;;5.40;2.05;;;15.20;58.10;;;;;;4958976;28;20043;-69
2021/01/18 05:39:30;;;;;;;8.55;2.50;;;15.20;58.00;;;;;;4952745;28;20031;-69
2021/01/18 05:41:56;;;;;;;6.63;2.30;;;15.40;57.70;;;;;;4972288;28;20031;-70
2021/01/18 05:44:34;;;;;;;7.78;2.50;;;15.30;57.70;;;;;;4940826;28;20552;-68
2021/01/18 05:47:11;;;;;;;7.65;2.28;;;15.40;57.90;;;;;;4978037;28;20046;-69
2021/01/18 05:49:44;;;;;;;80.00;68.57;;;15.40;58.10;;;;;;4967427;28;20070;-70
2021/01/18 05:52:30;;;;;;;50.08;40.83;;;15.40;58.60;;;;;;4955291;28;20364;-70
2021/01/18 05:55:23;;;;;;;36.20;24.17;;;15.50;58.50;;;;;;4950346;28;20052;-70
2021/01/18 05:57:54;;;;;;;30.73;24.13;;;15.50;58.50;;;;;;4943836;28;20188;-70
2021/01/18 06:00:23;;;;;;;28.50;22.95;;;15.50;58.60;;;;;;4964379;28;20033;-70
2021/01/18 06:02:49;;;;;;;25.75;18.60;;;15.60;58.70;;;;;;4961929;28;20045;-71
2021/01/18 06:05:15;;;;;;;25.15;17.38;;;15.60;58.80;;;;;;4976703;28;20412;-70
2021/01/18 06:07:40;;;;;;;21.75;15.63;;;15.60;58.80;;;;;;4971609;28;20044;-70
2021/01/18 06:10:07;;;;;;;26.70;14.23;;;15.50;58.70;;;;;;4959320;28;20027;-70
2021/01/18 06:12:33;;;;;;;20.88;12.95;;;15.80;58.80;;;;;;4973036;28;20555;-71
2021/01/18 06:15:05;;;;;;;21.98;12.88;;;15.90;58.40;;;;;;4973597;28;20097;-70
2021/01/18 06:17:31;;;;;;;20.05;12.07;;;16.00;58.60;;;;;;4970657;28;20042;-69
2021/01/18 06:19:59;;;;;;;16.60;11.75;;;16.10;58.60;;;;;;4967765;28;20689;-70
2021/01/18 06:22:28;;;;;;;22.10;12.23;;;16.10;58.70;;;;;;4975801;28;20034;-70
2021/01/18 06:25:10;;;;;;;21.20;11.05;;;16.10;59.20;;;;;;4942340;28;20061;-70
2021/01/18 06:27:35;;;;;;;20.70;11.13;;;16.10;59.40;;;;;;4963878;28;20039;-69
2021/01/18 06:30:01;;;;;;;20.05;9.95;;;16.10;59.80;;;;;;4951520;28;20541;-71
2021/01/18 06:32:32;;;;;;;20.05;10.63;;;16.10;60.10;;;;;;4972759;28;20624;-70
2021/01/18 06:35:03;;;;;;;27.10;12.00;;;16.10;60.00;;;;;;4970192;28;20034;-71
2021/01/18 06:37:32;;;;;;;17.27;9.75;;;16.00;60.20;;;;;;4959193;28;20063;-70
2021/01/18 06:40:05;;;;;;;22.55;9.30;;;16.10;60.10;;;;;;4964136;28;20043;-71
2021/01/18 06:42:31;;;;;;;19.73;8.85;;;16.10;60.00;;;;;;4955588;28;20022;-69
2021/01/18 06:44:57;;;;;;;15.27;7.88;;;16.10;59.70;;;;;;4964891;28;20049;-71
2021/01/18 06:50:45;;;;;;;19.10;8.32;;;16.30;60.50;;;;;;4965328;28;20404;-72
2021/01/18 06:53:10;;;;;;;17.30;8.18;;;16.30;60.60;;;;;;4962309;28;20026;-71
2021/01/18 06:55:44;;;;;;;12.85;7.25;;;16.30;60.00;;;;;;4955271;28;20026;-70
2021/01/18 06:58:33;;;;;;;16.77;7.80;;;16.30;60.00;;;;;;4947637;28;20066;-73
2021/01/18 07:00:59;;;;;;;17.08;7.60;;;16.30;60.30;;;;;;4962491;28;20023;-69
2021/01/18 07:03:40;;;;;;;16.83;8.45;;;16.30;61.10;;;;;;4957475;28;20408;-70
2021/01/18 07:06:45;;;;;;;19.70;11.27;;;16.30;60.80;;;;;;4980397;28;20037;-73
2021/01/18 07:09:16;;;;;;;18.13;9.95;;;16.20;60.20;;;;;;4885061;29;20036;-72
2021/01/18 07:11:42;;;;;;;14.50;7.80;;;16.20;60.30;;;;;;4885823;29;20025;-70
2021/01/18 07:14:10;;;;;;;17.73;8.27;;;16.20;60.30;;;;;;4929707;28;20713;-72
2021/01/18 07:16:38;;;;;;;15.95;7.63;;;16.10;60.30;;;;;;4966559;28;20053;-68
2021/01/18 07:19:06;;;;;;;19.95;7.97;;;16.10;60.10;;;;;;4951758;28;20504;-68
2021/01/18 07:21:47;;;;;;;18.77;7.88;;;16.20;60.90;;;;;;4969161;28;20135;-72
2021/01/18 07:24:15;;;;;;;18.15;7.00;;;16.20;60.40;;;;;;4956576;28;20662;-71
2021/01/18 07:26:56;;;;;;;15.50;6.38;;;16.20;60.40;;;;;;4972890;28;20034;-70
2021/01/18 07:29:24;;;;;;;15.13;6.07;;;16.20;60.40;;;;;;4952908;28;20011;-70
2021/01/18 07:31:53;;;;;;;13.57;5.72;;;16.30;60.50;;;;;;4957517;28;20805;-71
2021/01/18 07:34:21;;;;;;;12.13;5.88;;;16.20;60.30;;;;;;4965530;28;20498;-72
2021/01/18 07:36:48;;;;;;;12.80;5.93;;;16.30;60.60;;;;;;4953011;28;20041;-70
2021/01/18 07:39:32;;;;;;;16.95;5.90;;;16.30;60.30;;;;;;4963867;28;20027;-70
2021/01/18 07:41:58;;;;;;;18.42;6.53;;;16.40;60.60;;;;;;4956215;28;20130;-71
2021/01/18 07:44:37;;;;;;;16.05;5.50;;;16.50;61.10;;;;;;4964117;28;20118;-70
2021/01/18 07:47:08;;;;;;;14.07;5.85;;;16.40;61.80;;;;;;4963169;28;20027;-70
2021/01/18 07:49:36;;;;;;;15.55;5.93;;;16.40;62.10;;;;;;4982753;28;20555;-70
2021/01/18 07:52:16;;;;;;;14.90;5.75;;;16.40;62.50;;;;;;4947292;28;20498;-71
2021/01/18 07:54:42;;;;;;;12.95;5.60;;;16.40;62.40;;;;;;4944434;28;20459;-67
2021/01/18 07:57:25;;;;;;;14.32;5.57;;;16.40;62.90;;;;;;4962193;28;20062;-68
2021/01/18 08:00:17;;;;;;;13.02;5.10;;;16.40;62.60;;;;;;4984148;28;20566;-70
2021/01/18 08:02:46;;;;;;;12.95;4.80;;;16.50;62.60;;;;;;4984708;28;20548;-71
2021/01/18 08:05:35;;;;;;;10.73;5.00;;;16.50;62.20;;;;;;4955479;28;20444;-68
2021/01/18 08:08:11;;;;;;;13.80;5.55;;;16.50;62.50;;;;;;4954247;28;20098;-71
2021/01/18 08:10:59;;;;;;;16.10;5.35;;;16.60;62.20;;;;;;4974035;28;20022;-71
2021/01/18 08:13:48;;;;;;;13.43;5.80;;;16.60;62.00;;;;;;4978695;28;20019;-72
2021/01/18 08:16:26;;;;;;;10.73;5.72;;;16.60;61.90;;;;;;4957830;28;20029;-71
2021/01/18 08:19:08;;;;;;;12.85;5.30;;;16.70;61.40;;;;;;4954230;28;20090;-73
2021/01/18 08:21:39;;;;;;;14.20;5.32;;;16.70;61.20;;;;;;4974149;28;20039;-72
2021/01/18 08:24:35;;;;;;;15.70;4.88;;;16.50;61.20;;;;;;4959583;28;20538;-75
2021/01/18 08:27:08;;;;;;;21.17;5.88;;;16.60;61.20;;;;;;4949483;28;20050;-71
2021/01/18 08:29:38;;;;;;;21.92;6.03;;;16.70;61.00;;;;;;4936458;28;20039;-73
2021/01/18 08:32:25;;;;;;;14.70;4.88;;;16.60;60.90;;;;;;4969953;28;20286;-73
2021/01/18 08:34:58;;;;;;;12.50;4.60;;;16.60;60.80;;;;;;4951143;28;20118;-73
2021/01/18 08:37:28;;;;;;;14.05;4.40;;;16.60;60.90;;;;;;4951188;28;20041;-73
2021/01/18 08:40:11;;;;;;;18.83;4.97;;;16.50;60.70;;;;;;4968517;28;20582;-73
2021/01/18 08:42:38;;;;;;;12.07;4.50;;;16.50;60.70;;;;;;4950631;28;20420;-74
2021/01/18 08:45:08;;;;;;;12.93;5.10;;;16.50;60.40;;;;;;4968259;28;20038;-73
2021/01/18 08:47:35;;;;;;;14.55;4.43;;;16.60;60.30;;;;;;4968361;28;20026;-73
2021/01/18 08:50:28;;;;;;;14.25;4.50;;;16.50;60.20;;;;;;4968482;28;20082;-72
2021/01/18 08:52:59;;;;;;;10.27;4.45;;;16.50;60.40;;;;;;4945885;28;20047;-72
2021/01/18 08:55:31;;;;;;;11.40;3.90;;;16.40;60.30;;;;;;4950876;28;20038;-73
2021/01/18 08:58:04;;;;;;;12.18;4.10;;;16.50;60.10;;;;;;4950991;28;20026;-73
2021/01/18 09:00:41;;;;;;;10.25;4.07;;;16.50;60.20;;;;;;4968238;28;20039;-74
2021/01/18 09:03:18;;;;;;;9.90;3.95;;;16.40;60.10;;;;;;4968030;28;20610;-72
2021/01/18 09:05:44;;;;;;;82.25;55.17;;;16.40;60.20;;;;;;4950689;28;20089;-73
2021/01/18 09:08:13;;;;;;;27.58;15.00;;;16.40;60.00;;;;;;4968157;28;20160;-73
2021/01/18 09:10:38;;;;;;;18.55;8.73;;;16.40;59.80;;;;;;4950680;28;20030;-74
2021/01/18 09:13:06;;;;;;;18.55;10.27;;;16.40;59.60;;;;;;4950321;28;20279;-72
2021/01/18 09:15:33;;;;;;;74.10;49.88;;;16.40;59.50;;;;;;4968153;28;20075;-73
2021/01/18 09:18:08;;;;;;;31.15;20.40;;;16.40;59.60;;;;;;4950211;28;20030;-74
2021/01/18 09:20:39;;;;;;;24.27;15.50;;;16.40;59.50;;;;;;4950071;28;20031;-73
2021/01/18 09:23:07;;;;;;;21.08;12.10;;;16.30;59.30;;;;;;4967889;28;20410;-74
2021/01/18 09:25:37;;;;;;;18.70;11.68;;;16.30;59.40;;;;;;4950074;28;20520;-74
2021/01/18 09:28:06;;;;;;;19.45;11.40;;;16.30;59.20;;;;;;4967632;28;20664;-73
2021/01/18 09:30:32;;;;;;;50.20;36.10;;;16.40;59.10;;;;;;4967591;28;20037;-72
2021/01/18 09:33:00;;;;;;;20.88;13.95;;;16.30;58.80;;;;;;4950097;28;20038;-73
2021/01/18 09:35:27;;;;;;;20.30;10.63;;;16.30;58.80;;;;;;4949233;28;20080;-74
2021/01/18 09:37:53;;;;;;;19.70;10.75;;;16.30;59.10;;;;;;4937343;28;20496;-74
2021/01/18 09:40:19;;;;;;;23.83;10.93;;;16.20;59.30;;;;;;4940580;28;20031;-72
2021/01/18 09:42:48;;;;;;;71.75;47.53;;;16.20;59.30;;;;;;4948949;28;20031;-74
2021/01/18 09:45:14;;;;;;;51.00;35.53;;;16.20;59.00;;;;;;4930873;29;20035;-73
2021/01/18 09:47:41;;;;;;;50.65;37.63;;;16.10;59.10;;;;;;4930384;29;20077;-72
2021/01/18 09:50:18;;;;;;;44.08;29.67;;;16.20;59.10;;;;;;4948333;29;20031;-73
2021/01/18 09:52:51;;;;;;;46.58;32.88;;;16.10;58.90;;;;;;4948169;29;20038;-72
2021/01/18 09:55:30;;;;;;;49.63;32.83;;;16.10;58.80;;;;;;4930874;29;20122;-72
2021/01/18 09:58:06;;;;;;;109.57;66.15;;;16.10;58.80;;;;;;4930933;29;20037;-73
2021/01/18 10:00:34;;;;;;;176.90;107.47;;;16.10;58.80;;;;;;4930945;29;20428;-72
2021/01/18 10:03:00;;;;;;;183.13;113.25;;;16.10;58.80;;;;;;4947844;29;20023;-72
2021/01/18 10:05:32;;;;;;;153.88;99.93;;;16.10;58.60;;;;;;4947743;29;20027;-73
2021/01/18 10:08:00;;;;;;;111.63;71.90;;;16.10;58.60;;;;;;4930241;29;20031;-72
2021/01/18 10:10:26;;;;;;;99.75;62.08;;;16.10;58.50;;;;;;4947563;29;20557;-73
2021/01/18 10:12:54;;;;;;;78.05;50.33;;;16.10;58.50;;;;;;4930375;29;20050;-72
2021/01/18 10:15:24;;;;;;;116.90;75.55;;;16.00;58.40;;;;;;4930370;29;20027;-74
2021/01/18 10:17:49;;;;;;;147.90;101.15;;;16.00;58.50;;;;;;4947385;29;20038;-73
2021/01/18 10:20:30;;;;;;;121.53;83.80;;;16.00;58.50;;;;;;4947502;29;20023;-73
2021/01/18 10:22:56;;;;;;;79.80;51.95;;;16.00;58.30;;;;;;4930045;29;20113;-73
2021/01/18 10:25:27;;;;;;;90.25;60.97;;;16.00;58.20;;;;;;4930057;29;20034;-73
2021/01/18 10:27:55;;;;;;;90.05;59.28;;;16.00;58.20;;;;;;4929689;29;20054;-73
2021/01/18 10:30:27;;;;;;;76.35;51.80;;;16.00;58.20;;;;;;4947471;29;20079;-73
2021/01/18 10:32:53;;;;;;;;;;;16.00;58.20;;;;;;4946622;28;20035;-71
2021/01/18 10:35:32;;;;;;;74.57;49.15;;;16.00;58.10;;;;;;4947217;29;19914;-73
2021/01/18 10:38:11;;;;;;;72.18;44.78;;;16.00;57.90;;;;;;4947254;29;20034;-74
2021/01/18 10:40:37;;;;;;;71.90;44.45;;;16.00;57.80;;;;;;4947052;29;20029;-74
2021/01/18 10:43:06;;;;;;;66.05;42.38;;;16.00;57.80;;;;;;4929691;29;20035;-73
2021/01/18 10:45:38;;;;;;;51.30;35.38;;;16.10;57.80;;;;;;4929527;29;20027;-73
2021/01/18 10:48:04;;;;;;;60.33;39.30;;;16.00;57.70;;;;;;4929877;29;20023;-72
2021/01/18 10:50:31;;;;;;;98.63;59.13;;;16.00;57.80;;;;;;4946808;29;20035;-73
2021/01/18 10:53:09;;;;;;;85.75;51.47;;;16.00;57.80;;;;;;4929716;29;20027;-72
2021/01/18 10:55:36;;;;;;;81.55;50.60;;;15.80;57.80;;;;;;4947004;29;20034;-72
2021/01/18 10:58:03;;;;;;;113.30;70.10;;;15.90;57.70;;;;;;4929406;29;20570;-73
2021/01/18 11:00:29;;;;;;;145.10;95.95;;;15.90;57.70;;;;;;4946899;29;20493;-73
2021/01/18 11:03:03;;;;;;;104.38;69.93;;;15.90;57.70;;;;;;4929160;29;20035;-73
2021/01/18 11:05:35;;;;;;;87.07;54.53;;;15.90;57.70;;;;;;4929533;29;20027;-73
2021/01/18 11:08:06;;;;;;;134.18;77.70;;;15.80;57.70;;;;;;4946879;29;20807;-73
2021/01/18 11:10:35;;;;;;;419.25;228.88;;;15.80;57.70;;;;;;4929481;29;20115;-73
2021/01/18 11:13:21;;;;;;;243.07;133.63;;;15.80;57.60;;;;;;4946601;29;20519;-73
2021/01/18 11:15:48;;;;;;;192.93;106.10;;;15.80;57.50;;;;;;4929255;29;20070;-74
2021/01/18 11:18:14;;;;;;;196.90;106.05;;;15.80;57.50;;;;;;4930615;28;20523;-72
2021/01/18 11:20:41;;;;;;;140.82;79.40;;;15.80;57.50;;;;;;4955524;28;20113;-72
2021/01/18 11:23:09;;;;;;;113.65;58.55;;;15.70;58.60;;;;;;4966553;28;20117;-71
2021/01/18 11:25:36;;;;;;;98.80;51.95;;;15.70;59.50;;;;;;4972898;28;20023;-69
2021/01/18 11:28:12;;;;;;;86.22;51.70;;;15.70;61.10;;;;;;4970382;28;20023;-71
2021/01/18 11:30:39;;;;;;;85.70;48.80;;;15.70;59.70;;;;;;4953934;28;20113;-70
2021/01/18 11:33:06;;;;;;;84.43;47.38;;;15.90;59.00;;;;;;4966254;28;20038;-72
2021/01/18 11:35:31;;;;;;;76.28;45.78;;;15.70;58.70;;;;;;4959726;28;20110;-71
2021/01/18 11:37:57;;;;;;;68.55;42.65;;;15.90;58.60;;;;;;4965517;28;20141;-71
2021/01/18 11:40:23;;;;;;;70.80;38.97;;;15.90;58.30;;;;;;4967121;28;20068;-70
2021/01/18 11:42:48;;;;;;;65.60;40.47;;;15.90;58.10;;;;;;4982585;28;20054;-71
2021/01/18 11:45:14;;;;;;;62.30;37.60;;;16.00;58.00;;;;;;4960222;28;20415;-71
2021/01/18 11:47:40;;;;;;;68.45;42.53;;;16.00;57.90;;;;;;4961997;28;20027;-71
2021/01/18 11:50:08;;;;;;;66.28;38.58;;;16.00;57.90;;;;;;4980085;28;20427;-71
2021/01/18 11:52:40;;;;;;;59.33;35.72;;;16.10;57.90;;;;;;4973898;28;20027;-72
2021/01/18 11:55:06;;;;;;;62.13;35.67;;;16.20;57.90;;;;;;4974669;28;20444;-72
2021/01/18 11:57:31;;;;;;;56.60;33.35;;;16.10;58.00;;;;;;4973754;28;20031;-73
2021/01/18 11:59:57;;;;;;;61.72;34.13;;;16.10;58.00;;;;;;4958283;28;20027;-72
2021/01/18 12:02:23;;;;;;;52.22;31.00;;;16.10;58.20;;;;;;4969995;28;20530;-72
2021/01/18 12:04:48;;;;;;;51.80;31.58;;;16.10;58.10;;;;;;4963162;28;20058;-72
2021/01/18 12:07:14;;;;;;;51.35;30.05;;;16.00;58.20;;;;;;4950548;28;20023;-72
2021/01/18 12:09:39;;;;;;;51.30;29.73;;;16.00;58.20;;;;;;4952622;28;20507;-72
2021/01/18 12:12:05;;;;;;;46.65;27.67;;;16.10;58.20;;;;;;4956748;28;20023;-72
2021/01/18 12:14:31;;;;;;;45.88;27.27;;;16.10;58.00;;;;;;4961642;28;20022;-72
2021/01/18 12:17:01;;;;;;;50.83;26.63;;;16.10;57.80;;;;;;4973857;28;20100;-72
2021/01/18 12:19:27;;;;;;;53.42;26.08;;;16.20;58.20;;;;;;4987211;28;20153;-71
2021/01/18 12:21:53;;;;;;;42.90;24.77;;;16.20;58.20;;;;;;4938855;29;20482;-73
2021/01/18 12:24:19;;;;;;;44.45;23.88;;;16.20;58.00;;;;;;4956477;28;20362;-71
2021/01/18 12:26:48;;;;;;;41.30;24.70;;;16.20;57.80;;;;;;4967288;28;20045;-73
2021/01/18 12:29:14;;;;;;;37.38;22.45;;;16.20;57.70;;;;;;4968283;28;20050;-72
2021/01/18 12:31:39;;;;;;;42.40;22.10;;;16.20;57.60;;;;;;4968658;28;20065;-71
2021/01/18 12:34:05;;;;;;;36.95;20.33;;;16.20;57.60;;;;;;4956527;28;20033;-71
2021/01/18 12:36:30;;;;;;;41.88;22.02;;;16.20;57.60;;;;;;4975538;28;20034;-71
2021/01/18 12:38:56;;;;;;;33.53;19.75;;;16.20;57.50;;;;;;4959892;28;20034;-72
2021/01/18 12:41:21;;;;;;;35.60;19.67;;;16.20;57.40;;;;;;4973813;28;20022;-72
2021/01/18 12:43:47;;;;;;;33.20;19.38;;;16.30;57.50;;;;;;4956783;28;20027;-72
2021/01/18 12:46:17;;;;;;;35.58;19.10;;;16.30;57.40;;;;;;4956129;28;20081;-72
2021/01/18 12:48:43;;;;;;;33.42;18.58;;;16.20;57.60;;;;;;4956977;28;20205;-72
2021/01/18 12:51:13;;;;;;;33.15;18.33;;;16.20;57.50;;;;;;4956746;28;20026;-72
2021/01/18 12:53:43;;;;;;;32.13;17.17;;;16.10;57.40;;;;;;4953507;28;20511;-71
2021/01/18 12:56:10;;;;;;;32.50;17.65;;;16.30;57.40;;;;;;4948255;28;20086;-72
2021/01/18 12:58:35;;;;;;;32.03;16.17;;;16.30;57.40;;;;;;4969734;28;20035;-72
2021/01/18 13:01:01;;;;;;;29.38;17.05;;;16.30;57.40;;;;;;4965702;28;20527;-73
2021/01/18 13:03:27;;;;;;;29.65;16.75;;;16.20;57.50;;;;;;4973019;28;20432;-72
2021/01/18 13:05:52;;;;;;;29.30;15.27;;;16.20;57.60;;;;;;4960305;28;20038;-72
2021/01/18 13:08:19;;;;;;;27.98;15.60;;;16.30;57.60;;;;;;4975818;28;20022;-73